Time;durP1;ratioP1;P1;durP2;ratioP2;P2;SDS_P1;SDS_P2;PMS_P1;PMS_P2;Temp;Humidity;BMP_temperature;BMP_pressure;BME280_temperature;BME280_humidity;BME280_pressure;Samples;Min_cycle;Max_cycle;Signal;HPM_P1;HPM_P2
2023/07/29 00:01:39;;;;;;;0.50;0.30;;;18.60;99.90;;;;;;5038857;28;20081;-80
2023/07/29 00:04:08;;;;;;;0.75;0.50;;;18.50;99.90;;;;;;5035653;28;20127;-79
2023/07/29 00:06:37;;;;;;;0.60;0.30;;;18.50;99.90;;;;;;5021947;28;20412;-80
2023/07/29 00:09:04;;;;;;;0.30;0.30;;;18.40;1.00;;;;;;5009552;28;20609;-80
2023/07/29 00:11:33;;;;;;;0.47;0.25;;;18.40;1.00;;;;;;5042790;28;20056;-80
2023/07/29 00:14:01;;;;;;;0.43;0.30;;;18.30;5.20;;;;;;5026527;28;20049;-81
2023/07/29 00:16:28;;;;;;;0.68;0.30;;;18.30;83.90;;;;;;5057607;28;20063;-80
2023/07/29 00:18:55;;;;;;;0.30;0.30;;;18.30;99.90;;;;;;5024852;28;20094;-80
2023/07/29 00:21:22;;;;;;;0.40;0.30;;;18.30;99.90;;;;;;5057822;28;20074;-80
2023/07/29 00:23:48;;;;;;;1.00;0.20;;;18.20;99.90;;;;;;5038928;28;20186;-80
2023/07/29 00:26:15;;;;;;;0.85;0.30;;;18.20;99.90;;;;;;5017795;28;20045;-79
2023/07/29 00:28:42;;;;;;;0.32;0.22;;;18.20;99.90;;;;;;5038195;28;20060;-80
2023/07/29 00:31:10;;;;;;;0.20;0.20;;;18.20;99.90;;;;;;5041910;28;20068;-80
2023/07/29 00:33:37;;;;;;;0.40;0.40;;;18.20;99.90;;;;;;5023830;28;20076;-80
2023/07/29 00:36:04;;;;;;;1.80;0.55;;;18.20;99.90;;;;;;5023158;28;20550;-80
2023/07/29 00:38:31;;;;;;;0.45;0.30;;;18.20;99.90;;;;;;5041486;28;20152;-80
2023/07/29 00:40:58;;;;;;;0.57;0.30;;;18.20;99.90;;;;;;5041040;28;20343;-79
2023/07/29 00:43:25;;;;;;;0.50;0.40;;;18.20;99.90;;;;;;5041585;28;20052;-79
2023/07/29 00:45:52;;;;;;;0.68;0.50;;;18.20;99.90;;;;;;5025183;28;20128;-79
2023/07/29 00:48:19;;;;;;;0.30;0.30;;;18.20;99.90;;;;;;5032085;28;20057;-80
2023/07/29 00:50:46;;;;;;;0.40;0.40;;;18.20;99.90;;;;;;5037673;28;20045;-80
2023/07/29 00:53:13;;;;;;;0.40;0.40;;;18.20;1.00;;;;;;5026316;28;20052;-80
2023/07/29 00:55:40;;;;;;;0.73;0.55;;;18.10;99.90;;;;;;5059874;28;20048;-80
2023/07/29 00:58:07;;;;;;;0.43;0.40;;;18.10;99.90;;;;;;5044649;28;20133;-80
2023/07/29 01:00:34;;;;;;;1.27;0.70;;;18.20;99.90;;;;;;5061868;28;20048;-81
2023/07/29 01:03:01;;;;;;;0.77;0.77;;;18.10;1.00;;;;;;5059558;28;20071;-80
2023/07/29 01:05:32;;;;;;;1.10;0.82;;;18.10;1.00;;;;;;5037125;28;20064;-80
2023/07/29 01:08:21;;;;;;;0.95;0.80;;;18.10;1.00;;;;;;5024440;28;20052;-80
2023/07/29 01:10:59;;;;;;;0.85;0.57;;;18.10;99.90;;;;;;5040719;28;20408;-80
2023/07/29 01:13:33;;;;;;;0.98;0.88;;;18.10;99.90;;;;;;5045091;28;20124;-81
2023/07/29 01:16:42;;;;;;;0.63;0.63;;;18.10;99.90;;;;;;5024819;28;20053;-80
2023/07/29 01:19:15;;;;;;;0.70;0.70;;;18.00;99.90;;;;;;5055415;28;20044;-80
2023/07/29 01:21:42;;;;;;;0.60;0.60;;;18.00;99.90;;;;;;5040364;28;20045;-80
2023/07/29 01:24:09;;;;;;;1.45;0.90;;;18.00;99.90;;;;;;5037395;28;20049;-80
2023/07/29 01:26:36;;;;;;;0.82;0.70;;;17.90;99.90;;;;;;5045966;28;20053;-80
2023/07/29 01:29:03;;;;;;;1.48;1.00;;;17.90;99.90;;;;;;5026743;28;20073;-80
2023/07/29 01:31:38;;;;;;;1.00;0.90;;;17.90;99.90;;;;;;5043228;28;20063;-80
2023/07/29 01:34:13;;;;;;;1.17;0.77;;;17.80;99.90;;;;;;5045871;28;20056;-80
2023/07/29 01:36:40;;;;;;;0.93;0.85;;;17.80;99.90;;;;;;5025538;28;20049;-81
2023/07/29 01:39:08;;;;;;;0.50;0.50;;;17.80;99.90;;;;;;5029308;28;20116;-80
2023/07/29 01:41:36;;;;;;;0.70;0.60;;;17.80;99.90;;;;;;5060636;28;20049;-80
2023/07/29 01:44:03;;;;;;;0.82;0.70;;;17.80;1.00;;;;;;5041444;28;20056;-80
2023/07/29 01:46:33;;;;;;;0.68;0.60;;;17.80;1.00;;;;;;5031154;28;20354;-80
2023/07/29 01:49:00;;;;;;;0.95;0.70;;;17.70;1.00;;;;;;5028406;28;20227;-80
2023/07/29 01:51:27;;;;;;;0.75;0.73;;;17.70;1.00;;;;;;5014520;28;20052;-80
2023/07/29 01:53:55;;;;;;;0.82;0.73;;;17.70;1.00;;;;;;5036668;28;20400;-80
2023/07/29 01:56:22;;;;;;;0.90;0.80;;;17.70;1.00;;;;;;5025384;28;20129;-80
2023/07/29 01:58:49;;;;;;;0.60;0.60;;;17.60;28.90;;;;;;5026136;28;20596;-80
2023/07/29 02:01:17;;;;;;;0.95;0.80;;;17.60;55.90;;;;;;5055222;28;20080;-80
2023/07/29 02:03:45;;;;;;;0.80;0.80;;;17.50;82.40;;;;;;5060256;28;20049;-80
2023/07/29 02:06:11;;;;;;;0.80;0.57;;;17.50;99.90;;;;;;5015715;28;20088;-81
2023/07/29 02:08:40;;;;;;;1.25;0.82;;;17.50;99.90;;;;;;5051404;28;20056;-80
2023/07/29 02:11:08;;;;;;;1.15;0.95;;;17.50;99.90;;;;;;5041711;28;20551;-80
2023/07/29 02:13:35;;;;;;;0.82;0.70;;;17.40;99.90;;;;;;5033405;28;20276;-80
2023/07/29 02:16:01;;;;;;;1.23;0.80;;;17.40;99.90;;;;;;5040844;28;20086;-81
2023/07/29 02:18:28;;;;;;;1.70;0.60;;;17.40;99.90;;;;;;5025635;28;20053;-79
2023/07/29 02:20:55;;;;;;;1.00;0.85;;;17.40;99.90;;;;;;5023557;28;20041;-80
2023/07/29 02:23:22;;;;;;;0.52;0.52;;;17.40;99.90;;;;;;5037742;28;20500;-80
2023/07/29 02:25:50;;;;;;;0.77;0.70;;;17.40;99.90;;;;;;5045692;28;20052;-80
2023/07/29 02:28:17;;;;;;;0.50;0.50;;;17.40;99.90;;;;;;5026378;28;20057;-80
2023/07/29 02:30:44;;;;;;;0.60;0.52;;;17.40;99.90;;;;;;5028069;28;20052;-81
2023/07/29 02:33:11;;;;;;;1.75;0.98;;;17.40;99.90;;;;;;5047114;28;20040;-80
2023/07/29 02:35:38;;;;;;;0.95;0.77;;;17.40;99.90;;;;;;5055506;28;20076;-80
2023/07/29 02:38:05;;;;;;;1.35;0.77;;;17.40;99.90;;;;;;5028349;28;20060;-79
2023/07/29 02:40:32;;;;;;;0.80;0.80;;;17.40;99.90;;;;;;5052196;28;20444;-80
2023/07/29 02:42:59;;;;;;;1.00;0.80;;;17.40;99.90;;;;;;5061869;28;20041;-80
2023/07/29 02:45:27;;;;;;;1.50;0.98;;;17.40;1.00;;;;;;5045146;28;20052;-80
2023/07/29 02:47:54;;;;;;;0.90;0.80;;;17.40;99.90;;;;;;5044582;28;20076;-80
2023/07/29 02:50:21;;;;;;;0.60;0.60;;;17.40;1.00;;;;;;5023452;28;20557;-80
2023/07/29 02:52:48;;;;;;;1.00;0.80;;;17.40;1.00;;;;;;5031680;28;20395;-79
2023/07/29 02:55:17;;;;;;;0.90;0.80;;;17.40;1.00;;;;;;5044814;28;20367;-79
2023/07/29 02:57:44;;;;;;;1.00;0.75;;;17.40;1.00;;;;;;5047128;28;20492;-80
2023/07/29 03:00:15;;;;;;;1.10;0.77;;;17.40;9.70;;;;;;5017079;28;20057;-80
2023/07/29 03:02:42;;;;;;;0.80;0.70;;;17.40;49.50;;;;;;5044710;28;20135;-79
2023/07/29 03:05:09;;;;;;;0.88;0.80;;;17.40;94.00;;;;;;5023334;28;20061;-79
2023/07/29 03:07:36;;;;;;;0.93;0.77;;;17.40;99.90;;;;;;5026301;28;20095;-79
2023/07/29 03:10:03;;;;;;;0.70;0.70;;;17.40;99.90;;;;;;5044148;28;20548;-79
2023/07/29 03:12:31;;;;;;;0.82;0.75;;;17.30;99.90;;;;;;5024799;28;20053;-80
2023/07/29 03:14:58;;;;;;;1.85;0.82;;;17.40;99.90;;;;;;5038509;28;20056;-80
2023/07/29 03:17:25;;;;;;;1.15;0.70;;;17.40;99.90;;;;;;5033422;28;20160;-80
2023/07/29 03:19:53;;;;;;;1.20;0.70;;;17.40;99.90;;;;;;5024047;28;20282;-80
2023/07/29 03:22:20;;;;;;;0.95;0.70;;;17.40;98.30;;;;;;5023018;28;20056;-80
2023/07/29 03:24:47;;;;;;;0.73;0.65;;;17.40;99.90;;;;;;5039126;28;20140;-80
2023/07/29 03:27:15;;;;;;;0.88;0.70;;;17.40;98.40;;;;;;5030425;28;20049;-80
2023/07/29 03:29:42;;;;;;;0.95;0.70;;;17.40;99.90;;;;;;5046968;28;20410;-80
2023/07/29 03:32:09;;;;;;;1.80;0.77;;;17.40;99.90;;;;;;5039725;28;20133;-80
2023/07/29 03:34:36;;;;;;;1.00;0.77;;;17.40;99.90;;;;;;5057560;28;20541;-79
2023/07/29 03:37:03;;;;;;;1.38;0.93;;;17.50;99.90;;;;;;5021966;28;20049;-80
2023/07/29 03:39:30;;;;;;;0.95;0.70;;;17.50;99.90;;;;;;5043083;28;20056;-81
2023/07/29 03:41:57;;;;;;;1.15;0.77;;;17.50;99.90;;;;;;5046773;28;20450;-80
2023/07/29 03:44:25;;;;;;;1.02;0.60;;;17.50;99.90;;;;;;5055575;28;20064;-80
2023/07/29 03:46:52;;;;;;;1.10;0.70;;;17.40;99.90;;;;;;5040360;28;20064;-80
2023/07/29 03:49:19;;;;;;;0.70;0.65;;;17.50;99.90;;;;;;5009510;28;20529;-80
2023/07/29 03:51:46;;;;;;;1.15;0.63;;;17.50;99.90;;;;;;5012524;28;20064;-80
2023/07/29 03:54:13;;;;;;;0.70;0.70;;;17.50;99.90;;;;;;5055421;28;20129;-80
2023/07/29 03:56:41;;;;;;;1.00;0.90;;;17.50;99.90;;;;;;5039852;28;20048;-80
2023/07/29 03:59:08;;;;;;;0.80;0.70;;;17.50;99.90;;;;;;5040866;28;20048;-79
2023/07/29 04:01:35;;;;;;;1.35;0.90;;;17.50;99.90;;;;;;5045166;28;20057;-80
2023/07/29 04:04:03;;;;;;;0.73;0.73;;;17.50;99.90;;;;;;5011831;28;20041;-79
2023/07/29 04:06:30;;;;;;;0.63;0.63;;;17.50;99.90;;;;;;5023400;28;20045;-79
2023/07/29 04:08:58;;;;;;;1.48;1.05;;;17.50;99.90;;;;;;5010938;28;20115;-80
2023/07/29 04:11:25;;;;;;;0.80;0.70;;;17.50;99.90;;;;;;5027868;28;20467;-80
2023/07/29 04:13:52;;;;;;;1.17;0.70;;;17.50;99.90;;;;;;5042091;28;20507;-80
2023/07/29 04:16:20;;;;;;;1.42;0.98;;;17.50;99.90;;;;;;5039989;28;20046;-80
2023/07/29 04:18:47;;;;;;;1.27;0.98;;;17.50;99.90;;;;;;5043023;28;20049;-80
2023/07/29 04:21:15;;;;;;;1.42;0.90;;;17.40;99.90;;;;;;5063955;28;20048;-81
2023/07/29 04:23:41;;;;;;;1.50;0.95;;;17.40;99.90;;;;;;5063739;28;20404;-80
2023/07/29 04:26:08;;;;;;;1.42;0.93;;;17.40;99.90;;;;;;5065451;28;20431;-80
2023/07/29 04:28:35;;;;;;;1.10;1.00;;;17.40;99.90;;;;;;5064412;28;20049;-81
2023/07/29 04:31:02;;;;;;;0.82;0.82;;;17.40;99.90;;;;;;5041294;28;20107;-80
2023/07/29 04:33:29;;;;;;;0.90;0.77;;;17.40;99.90;;;;;;5045436;28;20045;-81
2023/07/29 04:35:57;;;;;;;0.95;0.70;;;17.40;99.90;;;;;;5051594;28;20052;-80
2023/07/29 04:38:32;;;;;;;0.73;0.60;;;17.30;99.90;;;;;;5045087;28;20049;-80
2023/07/29 04:41:03;;;;;;;1.33;0.88;;;17.40;99.90;;;;;;5058995;28;20052;-81
2023/07/29 04:43:31;;;;;;;1.10;0.60;;;17.40;1.00;;;;;;5049246;28;20129;-80
2023/07/29 04:45:58;;;;;;;1.25;0.70;;;17.40;99.90;;;;;;5042645;28;20076;-80
2023/07/29 04:48:25;;;;;;;1.45;1.10;;;17.30;99.90;;;;;;5027014;28;20063;-80
2023/07/29 04:50:53;;;;;;;1.20;0.80;;;17.30;99.90;;;;;;5053893;28;20131;-80
2023/07/29 04:53:20;;;;;;;1.20;0.98;;;17.30;99.90;;;;;;5059512;28;20653;-81
2023/07/29 04:55:47;;;;;;;0.98;0.80;;;17.30;1.00;;;;;;5046907;28;20151;-80
2023/07/29 04:58:14;;;;;;;1.00;0.70;;;17.30;1.00;;;;;;5042340;28;20503;-79
2023/07/29 05:00:41;;;;;;;0.52;0.52;;;17.30;1.00;;;;;;5028620;28;20110;-80
2023/07/29 05:03:08;;;;;;;0.95;0.70;;;17.20;5.30;;;;;;5031688;28;20826;-80
2023/07/29 05:05:35;;;;;;;0.80;0.63;;;17.20;38.10;;;;;;5059928;28;20083;-80
2023/07/29 05:08:02;;;;;;;0.77;0.60;;;17.20;96.00;;;;;;5063263;28;20532;-80
2023/07/29 05:10:29;;;;;;;0.52;0.50;;;17.20;99.90;;;;;;5052089;28;20055;-78
2023/07/29 05:12:56;;;;;;;0.65;0.50;;;17.20;99.90;;;;;;5045653;28;20052;-79
2023/07/29 05:15:24;;;;;;;1.15;0.70;;;17.20;99.90;;;;;;5061054;28;20459;-79
2023/07/29 05:17:50;;;;;;;0.80;0.60;;;17.10;99.90;;;;;;5051490;28;20049;-79
2023/07/29 05:20:17;;;;;;;0.60;0.60;;;17.10;99.90;;;;;;5059895;28;20147;-79
2023/07/29 05:22:44;;;;;;;1.02;0.63;;;17.10;99.90;;;;;;5040426;28;20079;-79
2023/07/29 05:25:11;;;;;;;0.63;0.45;;;17.20;99.90;;;;;;5046338;28;20616;-79
2023/07/29 05:27:38;;;;;;;1.13;0.60;;;17.20;99.90;;;;;;5041080;28;20617;-79
2023/07/29 05:30:06;;;;;;;0.70;0.70;;;17.20;99.90;;;;;;5028080;28;20060;-79
2023/07/29 05:32:33;;;;;;;0.85;0.70;;;17.10;99.90;;;;;;5060388;28;20111;-79
2023/07/29 05:35:00;;;;;;;0.75;0.60;;;17.10;99.90;;;;;;5046063;28;20052;-79
2023/07/29 05:37:27;;;;;;;0.68;0.68;;;17.20;99.90;;;;;;5040277;28;20059;-80
2023/07/29 05:39:54;;;;;;;1.10;0.80;;;17.20;99.90;;;;;;5043080;28;20059;-80
2023/07/29 05:42:20;;;;;;;1.10;0.90;;;17.20;99.90;;;;;;5050110;28;20053;-80
2023/07/29 05:44:47;;;;;;;0.93;0.75;;;17.20;99.90;;;;;;5048412;28;20049;-80
2023/07/29 05:47:14;;;;;;;0.88;0.60;;;17.20;99.90;;;;;;5034876;28;20052;-80
2023/07/29 05:49:41;;;;;;;0.70;0.70;;;17.20;99.90;;;;;;5050008;28;20098;-79
2023/07/29 05:52:08;;;;;;;2.00;1.13;;;17.20;99.90;;;;;;5039307;28;20049;-79
2023/07/29 05:54:35;;;;;;;1.13;0.80;;;17.20;99.90;;;;;;5040289;28;20055;-80
2023/07/29 05:57:02;;;;;;;0.95;0.85;;;17.20;99.90;;;;;;5032637;28;20041;-80
2023/07/29 05:59:29;;;;;;;1.83;0.80;;;17.30;99.90;;;;;;5058655;28;20181;-80
2023/07/29 06:01:56;;;;;;;1.25;1.10;;;17.30;99.90;;;;;;5066382;28;20049;-81
2023/07/29 06:04:23;;;;;;;1.23;0.90;;;17.30;62.50;;;;;;5061330;28;20055;-80
2023/07/29 06:06:49;;;;;;;1.42;1.02;;;17.40;59.10;;;;;;5070242;28;20412;-80
2023/07/29 06:09:16;;;;;;;1.02;0.80;;;17.50;39.00;;;;;;5051116;28;20134;-80
2023/07/29 06:11:43;;;;;;;0.88;0.77;;;17.50;1.00;;;;;;5069593;28;20044;-80
2023/07/29 06:14:10;;;;;;;1.00;0.90;;;17.60;1.00;;;;;;5039909;28;20134;-80
2023/07/29 06:16:37;;;;;;;0.70;0.70;;;17.60;1.00;;;;;;5047376;28;20492;-80
2023/07/29 06:19:04;;;;;;;0.98;0.82;;;17.50;1.00;;;;;;5059567;28;20053;-80
2023/07/29 06:21:31;;;;;;;1.08;0.70;;;17.50;1.00;;;;;;5038235;28;20072;-80
2023/07/29 06:23:58;;;;;;;1.05;0.70;;;17.50;1.00;;;;;;5037711;28;20124;-80
2023/07/29 06:26:25;;;;;;;0.70;0.70;;;17.50;99.90;;;;;;5037933;28;20053;-79
2023/07/29 06:28:52;;;;;;;0.82;0.60;;;17.50;99.90;;;;;;5054979;28;20131;-79
2023/07/29 06:31:19;;;;;;;0.73;0.70;;;17.50;99.90;;;;;;5048944;28;20041;-80
2023/07/29 06:33:46;;;;;;;0.75;0.55;;;17.60;99.90;;;;;;5051638;28;20063;-80
2023/07/29 06:36:13;;;;;;;1.98;0.88;;;17.60;99.90;;;;;;5040861;28;20063;-79
2023/07/29 06:38:41;;;;;;;1.00;0.75;;;17.70;99.90;;;;;;5043090;28;20081;-80
2023/07/29 06:41:09;;;;;;;0.68;0.68;;;17.70;99.90;;;;;;5048630;28;20056;-80
2023/07/29 06:43:41;;;;;;;2.08;0.90;;;17.80;99.90;;;;;;5050029;28;20056;-80
2023/07/29 06:46:08;;;;;;;1.17;0.77;;;17.80;99.90;;;;;;5058846;28;20495;-80
2023/07/29 06:48:35;;;;;;;0.73;0.68;;;17.90;99.90;;;;;;5039762;28;20044;-80
2023/07/29 06:51:02;;;;;;;1.17;0.90;;;17.90;99.90;;;;;;5039099;28;20057;-76
2023/07/29 06:53:29;;;;;;;1.17;0.65;;;17.90;99.90;;;;;;5051965;28;20041;-78
2023/07/29 06:56:00;;;;;;;0.60;0.40;;;17.90;99.90;;;;;;5023120;28;20045;-78
2023/07/29 06:58:27;;;;;;;0.82;0.52;;;17.90;99.90;;;;;;5041541;28;20045;-79
2023/07/29 07:00:54;;;;;;;1.00;0.60;;;17.90;99.90;;;;;;5049700;28;20048;-79
2023/07/29 07:03:24;;;;;;;0.90;0.60;;;18.00;99.90;;;;;;5033730;28;20273;-79
2023/07/29 07:05:51;;;;;;;0.43;0.43;;;18.00;99.90;;;;;;5032830;28;20056;-81
2023/07/29 07:08:18;;;;;;;0.75;0.70;;;18.10;1.00;;;;;;5040464;28;20388;-79
2023/07/29 07:10:47;;;;;;;1.02;0.70;;;18.30;1.00;;;;;;5044420;28;20041;-79
2023/07/29 07:13:14;;;;;;;1.02;0.73;;;18.50;99.90;;;;;;5052729;28;20161;-80
2023/07/29 07:15:41;;;;;;;0.85;0.60;;;18.70;99.90;;;;;;5039314;28;20057;-79
2023/07/29 07:18:09;;;;;;;0.75;0.60;;;19.00;99.90;;;;;;5051698;28;20102;-79
2023/07/29 07:20:36;;;;;;;0.70;0.60;;;19.00;1.00;;;;;;5054078;28;20049;-80
2023/07/29 07:23:05;;;;;;;1.00;0.60;;;19.10;1.00;;;;;;5041242;28;20136;-79
2023/07/29 07:25:32;;;;;;;0.65;0.50;;;19.10;1.00;;;;;;5031301;28;20115;-80
2023/07/29 07:27:59;;;;;;;1.17;0.75;;;19.20;99.90;;;;;;5054408;28;20135;-80
2023/07/29 07:30:25;;;;;;;0.75;0.70;;;19.20;99.90;;;;;;5043838;28;20135;-79
2023/07/29 07:32:53;;;;;;;0.88;0.82;;;19.10;99.90;;;;;;5048048;28;20040;-79
2023/07/29 07:35:20;;;;;;;0.88;0.60;;;19.10;99.90;;;;;;5037033;28;20070;-79
2023/07/29 07:37:46;;;;;;;1.08;0.60;;;19.20;99.90;;;;;;5054252;28;20113;-79
2023/07/29 07:40:13;;;;;;;0.90;0.70;;;19.30;50.00;;;;;;5054074;28;20049;-79
2023/07/29 07:42:40;;;;;;;0.63;0.55;;;19.20;1.00;;;;;;5050554;28;20068;-80
2023/07/29 07:45:07;;;;;;;0.75;0.63;;;19.20;1.00;;;;;;5063811;28;20621;-79
2023/07/29 07:47:34;;;;;;;1.67;0.90;;;19.30;99.90;;;;;;5053459;28;20045;-79
2023/07/29 07:50:01;;;;;;;0.80;0.70;;;19.40;99.90;;;;;;5051029;28;20052;-79
2023/07/29 07:52:28;;;;;;;0.40;0.40;;;19.30;3.70;;;;;;5055303;28;20060;-80
2023/07/29 07:54:55;;;;;;;0.40;0.40;;;19.30;1.00;;;;;;5035295;28;20127;-80
2023/07/29 07:57:22;;;;;;;0.50;0.50;;;19.40;99.90;;;;;;5032425;28;20537;-80
2023/07/29 07:59:49;;;;;;;0.75;0.63;;;19.50;99.90;;;;;;5016317;28;21005;-80
2023/07/29 08:02:15;;;;;;;0.77;0.73;;;19.40;1.00;;;;;;5028793;28;20430;-80
2023/07/29 08:04:43;;;;;;;0.90;0.70;;;19.20;99.90;;;;;;5038326;28;20044;-78
2023/07/29 08:07:10;;;;;;;0.60;0.60;;;19.20;99.90;;;;;;5043622;28;20126;-79
2023/07/29 08:09:37;;;;;;;0.73;0.55;;;19.30;94.10;;;;;;5029983;28;20143;-78
2023/07/29 08:12:03;;;;;;;0.60;0.60;;;19.60;95.90;;;;;;5052276;28;20075;-80
2023/07/29 08:14:30;;;;;;;0.77;0.50;;;19.90;99.90;;;;;;5052937;28;20242;-79
2023/07/29 08:16:57;;;;;;;0.60;0.60;;;20.10;90.90;;;;;;5065891;28;20108;-79
2023/07/29 08:19:24;;;;;;;0.68;0.65;;;20.20;99.90;;;;;;5030449;28;20077;-74
2023/07/29 08:21:51;;;;;;;0.65;0.60;;;20.20;99.90;;;;;;5042159;28;20594;-78
2023/07/29 08:24:17;;;;;;;0.95;0.60;;;20.20;99.90;;;;;;5037198;28;20079;-75
2023/07/29 08:26:45;;;;;;;0.60;0.45;;;20.00;99.90;;;;;;5047995;28;20140;-74
2023/07/29 08:29:12;;;;;;;0.50;0.50;;;20.00;99.90;;;;;;5065214;28;20052;-78
2023/07/29 08:31:39;;;;;;;0.50;0.50;;;19.90;99.90;;;;;;5060433;28;20047;-77
2023/07/29 08:34:05;;;;;;;0.65;0.57;;;19.80;1.00;;;;;;5051465;28;20828;-77
2023/07/29 08:36:32;;;;;;;1.10;0.68;;;19.70;13.30;;;;;;5052554;28;20083;-77
2023/07/29 08:38:59;;;;;;;0.55;0.55;;;19.40;99.90;;;;;;5044871;28;20044;-81
2023/07/29 08:41:33;;;;;;;1.02;0.93;;;18.80;99.90;;;;;;5045511;28;20049;-79
2023/07/29 08:44:05;;;;;;;0.60;0.60;;;18.20;1.00;;;;;;5050907;28;20053;-82
2023/07/29 08:46:34;;;;;;;0.73;0.60;;;17.60;99.90;;;;;;5033271;28;20048;-84
2023/07/29 08:49:02;;;;;;;0.70;0.50;;;17.10;99.90;;;;;;5048339;28;20152;-81
2023/07/29 08:51:29;;;;;;;0.88;0.57;;;16.60;96.10;;;;;;5061580;28;20048;-81
2023/07/29 08:53:55;;;;;;;1.98;1.00;;;16.40;99.90;;;;;;5027538;28;20075;-83
2023/07/29 08:56:22;;;;;;;0.40;0.40;;;16.40;1.00;;;;;;5058942;28;20048;-82
2023/07/29 08:58:49;;;;;;;0.77;0.63;;;16.40;1.00;;;;;;5038758;28;20048;-80
2023/07/29 09:01:16;;;;;;;0.57;0.50;;;16.40;1.00;;;;;;5042650;28;20098;-81
2023/07/29 09:03:43;;;;;;;0.85;0.57;;;16.60;99.90;;;;;;5052718;28;20056;-81
2023/07/29 09:06:09;;;;;;;0.60;0.50;;;16.80;99.90;;;;;;5062992;28;20163;-81
2023/07/29 09:08:36;;;;;;;0.68;0.40;;;17.10;99.90;;;;;;5033997;28;20424;-81
2023/07/29 09:11:03;;;;;;;0.65;0.57;;;17.20;99.90;;;;;;5047390;28;20048;-81
2023/07/29 09:13:30;;;;;;;0.52;0.40;;;17.20;99.90;;;;;;5056913;28;20504;-80
2023/07/29 09:15:57;;;;;;;0.43;0.40;;;17.10;99.90;;;;;;5060615;28;20086;-80
2023/07/29 09:18:26;;;;;;;0.50;0.50;;;16.90;99.90;;;;;;5039873;28;20056;-79
2023/07/29 09:20:53;;;;;;;1.58;0.70;;;17.00;99.90;;;;;;5055358;28;20208;-81
2023/07/29 09:23:20;;;;;;;1.05;0.52;;;17.10;99.90;;;;;;5053714;28;20466;-79
2023/07/29 09:25:47;;;;;;;0.63;0.50;;;17.20;99.90;;;;;;5037237;28;20193;-79
2023/07/29 09:28:15;;;;;;;1.20;0.70;;;17.50;99.90;;;;;;5055909;28;20037;-80
2023/07/29 09:30:45;;;;;;;0.80;0.57;;;17.70;99.90;;;;;;5046384;28;20059;-79
2023/07/29 09:33:12;;;;;;;0.50;0.50;;;17.80;99.90;;;;;;5056739;28;20566;-80
2023/07/29 09:35:39;;;;;;;0.80;0.70;;;17.80;99.90;;;;;;5043563;28;20140;-79
2023/07/29 09:38:06;;;;;;;0.68;0.60;;;17.80;99.90;;;;;;5060811;28;20097;-79
2023/07/29 09:40:37;;;;;;;1.25;0.70;;;17.80;99.90;;;;;;5076562;28;20412;-79
2023/07/29 09:43:04;;;;;;;2.15;1.20;;;18.00;1.00;;;;;;5054799;28;20047;-79
2023/07/29 09:45:33;;;;;;;1.08;0.90;;;18.00;99.90;;;;;;5059336;28;20488;-79
2023/07/29 09:48:00;;;;;;;1.02;0.70;;;18.10;99.90;;;;;;5037794;28;20044;-79
2023/07/29 09:50:27;;;;;;;1.20;0.90;;;18.20;99.90;;;;;;5061575;28;20861;-79
2023/07/29 09:52:58;;;;;;;1.42;0.80;;;18.30;99.90;;;;;;5053851;28;20106;-79
2023/07/29 09:55:26;;;;;;;1.67;1.00;;;18.40;99.90;;;;;;5036066;28;20051;-78
2023/07/29 09:58:01;;;;;;;1.02;0.77;;;18.50;99.90;;;;;;5058434;28;20048;-77
2023/07/29 10:00:31;;;;;;;1.10;1.00;;;18.70;99.90;;;;;;5045466;28;20076;-77
2023/07/29 10:02:58;;;;;;;1.38;0.80;;;18.90;1.00;;;;;;5059987;28;20048;-82
2023/07/29 10:05:26;;;;;;;1.08;0.82;;;19.10;99.90;;;;;;5019785;28;20053;-80
2023/07/29 10:07:53;;;;;;;1.00;0.90;;;19.20;99.90;;;;;;5032377;28;20083;-79
2023/07/29 10:10:21;;;;;;;1.60;1.20;;;19.20;64.60;;;;;;5011989;28;20057;-79
2023/07/29 10:12:47;;;;;;;1.17;0.82;;;19.30;99.90;;;;;;5027556;28;20126;-79
2023/07/29 10:15:14;;;;;;;1.35;0.98;;;19.30;1.00;;;;;;5025740;28;20060;-79
2023/07/29 10:17:41;;;;;;;1.60;1.08;;;19.40;99.90;;;;;;5005668;28;20131;-79
2023/07/29 10:20:09;;;;;;;2.85;1.40;;;19.50;1.00;;;;;;5045340;28;20764;-79
2023/07/29 10:22:41;;;;;;;1.70;0.82;;;19.50;99.90;;;;;;5018740;28;20156;-80
2023/07/29 10:25:10;;;;;;;1.60;0.77;;;19.40;1.00;;;;;;5022910;28;20052;-79
2023/07/29 10:27:46;;;;;;;1.50;0.95;;;19.50;1.00;;;;;;5043618;28;20690;-80
2023/07/29 10:30:13;;;;;;;0.88;0.65;;;19.70;99.90;;;;;;5039480;28;20471;-80
2023/07/29 10:32:44;;;;;;;1.02;0.90;;;19.90;1.00;;;;;;5025583;28;20110;-79
2023/07/29 10:35:15;;;;;;;0.77;0.70;;;20.10;1.00;;;;;;5025665;28;20079;-80
2023/07/29 10:37:42;;;;;;;1.50;1.00;;;20.20;99.90;;;;;;5035469;28;20049;-79
2023/07/29 10:40:11;;;;;;;1.45;0.90;;;20.40;99.90;;;;;;5022656;28;20144;-80
2023/07/29 10:42:38;;;;;;;1.92;1.20;;;20.60;99.90;;;;;;5027595;28;20048;-80
2023/07/29 10:45:20;;;;;;;2.25;1.02;;;20.70;99.90;;;;;;5038319;28;20044;-80
2023/07/29 10:47:47;;;;;;;1.70;1.13;;;20.80;99.40;;;;;;5035415;28;20172;-81
2023/07/29 10:50:19;;;;;;;1.40;0.90;;;20.90;99.90;;;;;;5037321;28;20048;-79
2023/07/29 10:52:51;;;;;;;1.10;0.90;;;21.10;96.60;;;;;;5035774;28;20180;-80
2023/07/29 10:55:44;;;;;;;1.65;0.90;;;21.40;87.50;;;;;;5027696;28;20206;-80
2023/07/29 10:58:18;;;;;;;2.00;0.95;;;21.80;86.00;;;;;;5047259;28;20048;-80
2023/07/29 11:00:45;;;;;;;1.90;0.80;;;21.90;55.60;;;;;;5041672;28;20068;-81
2023/07/29 11:03:16;;;;;;;1.35;0.82;;;22.00;42.80;;;;;;5014196;28;20348;-80
2023/07/29 11:05:44;;;;;;;1.15;0.75;;;22.00;46.00;;;;;;5047467;28;20059;-80
2023/07/29 11:08:27;;;;;;;0.80;0.50;;;22.20;48.40;;;;;;5036506;28;20401;-80
2023/07/29 11:10:58;;;;;;;1.15;0.80;;;22.40;42.50;;;;;;5042376;28;20041;-80
2023/07/29 11:13:35;;;;;;;2.47;0.80;;;22.40;32.60;;;;;;5010168;28;20044;-79
2023/07/29 11:16:02;;;;;;;1.90;0.93;;;22.40;26.80;;;;;;5020215;28;20065;-80
2023/07/29 11:18:31;;;;;;;1.15;0.60;;;22.20;25.00;;;;;;5007927;28;20049;-79
2023/07/29 11:20:58;;;;;;;1.27;0.88;;;22.20;23.80;;;;;;5040702;28;20036;-81
2023/07/29 11:23:29;;;;;;;1.65;1.17;;;22.20;20.00;;;;;;5022587;28;20495;-79
2023/07/29 11:25:58;;;;;;;1.25;1.10;;;22.30;19.70;;;;;;5035147;28;20476;-80
2023/07/29 11:28:25;;;;;;;1.13;0.95;;;22.60;20.70;;;;;;5009870;28;20048;-79
2023/07/29 11:30:54;;;;;;;0.98;0.60;;;23.00;16.70;;;;;;5037080;28;20456;-79
2023/07/29 11:33:25;;;;;;;1.38;0.98;;;23.20;14.00;;;;;;5027887;28;20044;-79
2023/07/29 11:35:52;;;;;;;1.70;1.02;;;23.20;14.20;;;;;;5043976;28;20965;-80
2023/07/29 11:38:20;;;;;;;1.60;0.82;;;23.70;9.00;;;;;;5041195;28;20056;-79
2023/07/29 11:40:58;;;;;;;1.65;0.98;;;23.70;6.30;;;;;;5036805;28;20136;-79
2023/07/29 11:43:24;;;;;;;1.73;0.80;;;23.50;3.50;;;;;;5032479;28;20147;-80
2023/07/29 11:45:52;;;;;;;1.30;0.73;;;23.40;1.00;;;;;;5039966;28;20484;-79
2023/07/29 11:48:27;;;;;;;1.55;0.85;;;23.20;1.00;;;;;;5034047;28;20055;-78
2023/07/29 11:50:55;;;;;;;1.90;0.90;;;22.90;1.00;;;;;;5037240;28;20048;-79
2023/07/29 11:53:22;;;;;;;1.42;0.80;;;22.60;1.00;;;;;;5031285;28;20962;-80
2023/07/29 11:55:52;;;;;;;1.27;0.85;;;22.40;1.00;;;;;;5029401;28;20053;-79
2023/07/29 11:58:20;;;;;;;1.90;1.00;;;22.10;1.00;;;;;;5032407;28;20048;-79
2023/07/29 12:00:47;;;;;;;1.63;0.82;;;21.90;1.50;;;;;;5040145;28;20044;-80
2023/07/29 12:03:16;;;;;;;1.60;0.90;;;21.80;33.60;;;;;;5035908;28;20063;-80
2023/07/29 12:05:43;;;;;;;1.30;0.73;;;21.60;31.70;;;;;;5027584;28;20057;-79
2023/07/29 12:08:10;;;;;;;1.80;1.00;;;21.40;24.50;;;;;;5032432;28;20045;-80
2023/07/29 12:10:37;;;;;;;2.00;0.82;;;21.40;33.40;;;;;;5025460;28;20541;-80
2023/07/29 12:13:04;;;;;;;0.75;0.75;;;21.50;31.90;;;;;;5010326;28;20143;-80
2023/07/29 12:15:31;;;;;;;1.10;0.68;;;21.80;30.10;;;;;;5022292;28;20146;-80
2023/07/29 12:17:58;;;;;;;1.33;0.80;;;22.10;19.90;;;;;;5041903;28;20047;-80
2023/07/29 12:20:26;;;;;;;0.57;0.52;;;22.60;13.70;;;;;;5021610;28;20531;-80
2023/07/29 12:22:56;;;;;;;2.25;1.00;;;22.80;11.80;;;;;;5030678;28;20044;-79
2023/07/29 12:25:23;;;;;;;1.25;0.95;;;22.90;10.90;;;;;;5023327;28;20881;-80
2023/07/29 12:27:50;;;;;;;2.30;1.10;;;23.20;7.20;;;;;;5041345;28;20554;-80
2023/07/29 12:30:20;;;;;;;2.08;0.80;;;23.00;4.20;;;;;;5047741;28;20059;-80
2023/07/29 12:32:47;;;;;;;1.50;0.80;;;23.10;4.60;;;;;;5029292;28;20041;-80
2023/07/29 12:35:14;;;;;;;2.58;1.05;;;23.10;2.50;;;;;;5015053;28;20049;-79
2023/07/29 12:37:42;;;;;;;1.90;1.10;;;23.10;3.00;;;;;;5025837;28;20657;-82
2023/07/29 12:40:25;;;;;;;1.33;1.15;;;24.10;4.50;;;;;;5041661;28;20535;-79
2023/07/29 12:42:52;;;;;;;2.42;1.05;;;24.90;5.30;;;;;;5035800;28;20057;-80
2023/07/29 12:45:19;;;;;;;2.88;1.25;;;24.80;1.00;;;;;;5043098;28;20051;-80
2023/07/29 12:47:46;;;;;;;1.52;0.85;;;24.60;1.00;;;;;;5043708;28;20139;-79
2023/07/29 12:50:13;;;;;;;1.70;1.10;;;24.50;1.00;;;;;;5040694;28;20514;-79
2023/07/29 12:52:40;;;;;;;1.83;1.08;;;24.20;1.00;;;;;;5044174;28;20044;-80
2023/07/29 12:55:08;;;;;;;1.90;1.08;;;23.90;1.00;;;;;;5013626;28;20087;-81